Sumiwakamaru No.3 — JL6169 — position and weather

sailwx.info

Track history (hours):
 
Tides and Currents Weather Stations Pressure Air Temp Water Temp Dewpoint Dewpoint Depression Visibility Wind Speed Wind Dir Waves Ship Positions

Sumiwakamaru No.3

Last reported at 2018-Feb-18 04:33 UTC. Time now 2018-Feb-19 14:13 UTC.
Position N 34°15' E 130°49'.

Length 70 m.

Type: Cargo ship. MMSI: 431500108.

Date/timePositionNaut miles runAvg speedWind from/ knotsBaromVisibWave heightAir tempDewpointWater temp
2018-Feb-18 04:33N 34°15' E 130°49'511.9
2018-Feb-18 04:08N 34°10' E 130°50'211.7
2018-Feb-18 04:00N 34°09' E 130°50'711.4
2018-Feb-18 03:23N 34°02' E 130°52'410.6
2018-Feb-18 03:00N 33°58' E 130°53'0 0.1
2018-Feb-18 02:30N 33°58' E 130°53'0 0.1
2018-Feb-18 02:00N 33°58' E 130°53'1 1.4
2018-Feb-18 01:30N 33°58' E 130°52'4 7.1
2018-Feb-18 01:00N 33°57' E 130°57'511.2
2018-Feb-18 00:30N 33°57' E 131°03'612.4
2018-Feb-17 23:59N 33°54' E 131°10'612.4
2018-Feb-17 23:29N 33°51' E 131°17'612.5
2018-Feb-17 23:00N 33°51' E 131°24'612.6
2018-Feb-17 22:30N 33°49' E 131°31'612.6
2018-Feb-17 22:00N 33°48' E 131°39'1812.0
2018-Feb-17 20:30N 33°46' E 132°00'3312.1
2018-Feb-17 17:43N 34°01' E 132°36'312.6
2018-Feb-17 17:29N 34°02' E 132°39'11510.3
2018-Feb-17 06:24N 34°42' E 134°50'0 0.0
2018-Feb-17 06:00N 34°42' E 134°50'0 0.0
2018-Feb-17 05:18N 34°42' E 134°50'0 0.0
2018-Feb-17 04:30N 34°42' E 134°50'0 0.0
2018-Feb-17 04:00N 34°42' E 134°50'0 0.0
2018-Feb-17 02:36N 34°42' E 134°50'0 0.0
2018-Feb-17 00:00N 34°42' E 134°50'0 0.0
2018-Feb-16 23:18N 34°42' E 134°50'0 0.0
2018-Feb-16 22:55N 34°42' E 134°50'0 0.0
2018-Feb-16 12:31N 34°42' E 134°50'0 0.4
2018-Feb-16 11:26N 34°42' E 134°50'511.9
2018-Feb-16 11:00N 34°39' E 134°45'612.5
2018-Feb-16 10:30N 34°36' E 134°38'712.8
2018-Feb-16 09:59N 34°32' E 134°32'97 7.2
2018-Feb-15 20:32N 34°12' E 132°37'0 0.0
2018-Feb-15 20:08N 34°12' E 132°37'2 3.5
2018-Feb-15 19:41N 34°10' E 132°37'211.2
2018-Feb-15 19:28N 34°08' E 132°37'50 9.7
2018-Feb-15 14:17N 33°47' E 131°42'412.5
2018-Feb-15 14:00N 33°48' E 131°38'712.3
2018-Feb-15 13:27N 33°50' E 131°30'1211.8
2018-Feb-15 12:28N 33°52' E 131°16'511.2
2018-Feb-15 12:00N 33°54' E 131°10'611.1
2018-Feb-15 11:30N 33°57' E 131°04'510.1
2018-Feb-15 11:00N 33°58' E 130°59'5 9.1
2018-Feb-15 10:30N 33°54' E 130°55'4 8.5
2018-Feb-15 10:00N 33°58' E 130°52'611.6
2018-Feb-15 09:29N 34°04' E 130°51'611.8
2018-Feb-15 08:59N 34°09' E 130°49'611.7
2018-Feb-15 08:30N 34°15' E 130°49'  
2018-Feb-10 04:49N 34°16' E 130°49'510.8
2018-Feb-10 04:20N 34°11' E 130°50'310.5
2018-Feb-10 04:00N 34°07' E 130°50'611.2
2018-Feb-10 03:30N 34°02' E 130°52'611.0
2018-Feb-10 03:00N 33°57' E 130°52'3 5.7
2018-Feb-10 02:25N 33°53' E 130°53'0 0.1
2018-Feb-10 01:58N 33°53' E 130°53'2 3.6
2018-Feb-10 01:30N 33°54' E 130°55'611.8
2018-Feb-10 01:00N 33°59' E 130°60'611.4
2018-Feb-10 00:30N 33°56' E 131°06'611.5
2018-Feb-10 00:00N 33°53' E 131°12'611.5
2018-Feb-09 23:30N 33°51' E 131°18'611.7
2018-Feb-09 23:00N 33°51' E 131°25'311.5
2018-Feb-09 22:44N 33°50' E 131°29'  
Track history (hours):
 
Tides and Currents Weather Stations Pressure Air Temp Water Temp Dewpoint Dewpoint Depression Visibility Wind Speed Wind Dir Waves Ship Positions

Sumiwakamaru No.3

Last reported at 2018-Feb-18 04:33 UTC. Time now 2018-Feb-19 14:13 UTC.
Position N 34°15' E 130°49'.

Length 70 m.

Type: Cargo ship. MMSI: 431500108.

Date/timePositionNaut miles runAvg speedWind from/ knotsBaromVisibWave heightAir tempDewpointWater temp
2018-Feb-18 04:33N 34°15' E 130°49'511.9
2018-Feb-18 04:08N 34°10' E 130°50'211.7
2018-Feb-18 04:00N 34°09' E 130°50'711.4
2018-Feb-18 03:23N 34°02' E 130°52'410.6
2018-Feb-18 03:00N 33°58' E 130°53'0 0.1
2018-Feb-18 02:30N 33°58' E 130°53'0 0.1
2018-Feb-18 02:00N 33°58' E 130°53'1 1.4
2018-Feb-18 01:30N 33°58' E 130°52'4 7.1
2018-Feb-18 01:00N 33°57' E 130°57'511.2
2018-Feb-18 00:30N 33°57' E 131°03'612.4
2018-Feb-17 23:59N 33°54' E 131°10'612.4
2018-Feb-17 23:29N 33°51' E 131°17'612.5
2018-Feb-17 23:00N 33°51' E 131°24'612.6
2018-Feb-17 22:30N 33°49' E 131°31'612.6
2018-Feb-17 22:00N 33°48' E 131°39'1812.0
2018-Feb-17 20:30N 33°46' E 132°00'3312.1
2018-Feb-17 17:43N 34°01' E 132°36'312.6
2018-Feb-17 17:29N 34°02' E 132°39'11510.3
2018-Feb-17 06:24N 34°42' E 134°50'0 0.0
2018-Feb-17 06:00N 34°42' E 134°50'0 0.0
2018-Feb-17 05:18N 34°42' E 134°50'0 0.0
2018-Feb-17 04:30N 34°42' E 134°50'0 0.0
2018-Feb-17 04:00N 34°42' E 134°50'0 0.0
2018-Feb-17 02:36N 34°42' E 134°50'0 0.0
2018-Feb-17 00:00N 34°42' E 134°50'0 0.0
2018-Feb-16 23:18N 34°42' E 134°50'0 0.0
2018-Feb-16 22:55N 34°42' E 134°50'0 0.0
2018-Feb-16 12:31N 34°42' E 134°50'0 0.4
2018-Feb-16 11:26N 34°42' E 134°50'511.9
2018-Feb-16 11:00N 34°39' E 134°45'612.5
2018-Feb-16 10:30N 34°36' E 134°38'712.8
2018-Feb-16 09:59N 34°32' E 134°32'97 7.2
2018-Feb-15 20:32N 34°12' E 132°37'0 0.0
2018-Feb-15 20:08N 34°12' E 132°37'2 3.5
2018-Feb-15 19:41N 34°10' E 132°37'211.2
2018-Feb-15 19:28N 34°08' E 132°37'50 9.7
2018-Feb-15 14:17N 33°47' E 131°42'412.5
2018-Feb-15 14:00N 33°48' E 131°38'712.3
2018-Feb-15 13:27N 33°50' E 131°30'1211.8
2018-Feb-15 12:28N 33°52' E 131°16'511.2
2018-Feb-15 12:00N 33°54' E 131°10'611.1
2018-Feb-15 11:30N 33°57' E 131°04'510.1
2018-Feb-15 11:00N 33°58' E 130°59'5 9.1
2018-Feb-15 10:30N 33°54' E 130°55'4 8.5
2018-Feb-15 10:00N 33°58' E 130°52'611.6
2018-Feb-15 09:29N 34°04' E 130°51'611.8
2018-Feb-15 08:59N 34°09' E 130°49'611.7
2018-Feb-15 08:30N 34°15' E 130°49'  
2018-Feb-10 04:49N 34°16' E 130°49'510.8
2018-Feb-10 04:20N 34°11' E 130°50'310.5
2018-Feb-10 04:00N 34°07' E 130°50'611.2
2018-Feb-10 03:30N 34°02' E 130°52'611.0
2018-Feb-10 03:00N 33°57' E 130°52'3 5.7
2018-Feb-10 02:25N 33°53' E 130°53'0 0.1
2018-Feb-10 01:58N 33°53' E 130°53'2 3.6
2018-Feb-10 01:30N 33°54' E 130°55'611.8
2018-Feb-10 01:00N 33°59' E 130°60'611.4
2018-Feb-10 00:30N 33°56' E 131°06'611.5
2018-Feb-10 00:00N 33°53' E 131°12'611.5
2018-Feb-09 23:30N 33°51' E 131°18'611.7
2018-Feb-09 23:00N 33°51' E 131°25'311.5
2018-Feb-09 22:44N 33°50' E 131°29'  

Dump ship's entire track history